Terminal Aerodrome Forecast
Issued by NWS Goodland, KS

Home | Current Version | Previous Version | Text Only | Print | Product List | Glossary On
Versions: 1 2 3 4 5 6 7 8 9 10 11 12
000
FTUS43 KGLD 222320
TAFGLD
TAF
KGLD 222320Z 2300/2324 21010G16KT P6SM BKN200
     FM230500 26011KT P6SM BKN100
     FM230800 31010G18KT P6SM BKN080
     FM231100 34028G38KT P6SM -SHSNRA SCT030 OVC060=

USA.gov is the U.S. government's official web portal to all federal, state and local government web resources and services.